リオデジャネイロ/サントス・デュモン の空港の天気 - METARとTAF

サントス・デュモン空港 ( SBRJ / SDU ) - ブラジル リオデジャネイロ州リオデジャネイロ市
飛行場実況気象(Metar)
観測時間02/27 19:00 BRT (02/27 22:00 UTC)
風向・風速南 2m/s
視程10km以上
天気現象
少しの雲 雲底高度 760m
全天の4割程度の雲 雲底高度 3050m
気温24℃
湿度83%
気圧1010hPa
METARSBRJ 272200Z 18003KT 9999 FEW025 SCT100 24/21 Q1010
過去の天気等 Google飛行場航空写真 Wunderground天気予報

過去48時間のMETAR

飛行場予報(TAF)
発表時間: 2/27 12:00 BRT (2/27 15:00 UTC)
予報対象時間: 27日15時 BRT ~ 28日3時 BRT
風向・風速南南東 5m/s
視程10km以上
少しの雲 雲底高度 460m
全天の4割程度の雲 雲底高度 910m
27日16時 BRT から 確率 30% で
視程5,000m
天気現象雷雨
全天の4割程度の雲 雲底高度 610m
少しの積乱雲 雲底高度 910m
27日18時 BRT ~ 27日20時 BRT に徐々に
風向・風速北西 3m/s
全天の4割程度の雲 雲底高度 520m
TAF SBRJ 271500Z 2718/2806 16010KT 9999 FEW015 SCT030 TX28/2718Z TN24/2806Z
PROB30 2719/2721 5000 TSRA SCT020 FEW030CB
BECMG 2721/2723 31005KT SCT017 RMK PGU